createdAt,value
2019-04-01T00:00:34.079Z,74.5
2019-04-01T00:01:24.062Z,74.5
2019-04-01T00:02:14.048Z,74.6
2019-04-01T00:03:04.038Z,74.6
2019-04-01T00:03:54.089Z,74.6
2019-04-01T00:04:44.011Z,74.8
2019-04-01T00:05:34.077Z,74.8
2019-04-01T00:06:24.069Z,74.8
2019-04-01T00:07:14.019Z,74.8
2019-04-01T00:08:04.076Z,74.9
2019-04-01T00:08:54.065Z,74.8
2019-04-01T00:09:44.008Z,74.9
2019-04-01T00:10:34.021Z,74.9
2019-04-01T00:11:24.107Z,74.9
2019-04-01T00:12:14.226Z,75
2019-04-01T00:13:04.083Z,75
2019-04-01T00:13:54.154Z,75
2019-04-01T00:14:44.003Z,75.1
2019-04-01T00:15:33.996Z,75.1
2019-04-01T00:16:24.085Z,75.1
2019-04-01T00:17:14.055Z,75.1
2019-04-01T00:18:04.102Z,75.1
2019-04-01T00:19:02.695Z,75.1
2019-04-01T00:19:44.641Z,75.2
2019-04-01T00:20:34.019Z,75.3
2019-04-01T00:21:24.106Z,75.4
2019-04-01T00:22:14.107Z,75.4
2019-04-01T00:23:04.275Z,75.5
2019-04-01T00:23:54.165Z,75.5
2019-04-01T00:24:44.126Z,75.6
2019-04-01T00:25:34.179Z,75.6
2019-04-01T00:26:24.115Z,75.6
2019-04-01T00:27:14.033Z,75.6
2019-04-01T00:28:04.082Z,75.6
2019-04-01T00:28:54.133Z,75.6
2019-04-01T00:29:44.662Z,75.7
2019-04-01T00:30:34.066Z,75.7
2019-04-01T00:31:24.051Z,75.8
2019-04-01T00:32:14.055Z,75.8
2019-04-01T00:33:05.259Z,75.8
2019-04-01T00:33:54.329Z,75.9
2019-04-01T00:34:44.342Z,75.9
2019-04-01T00:35:34.321Z,75.9
2019-04-01T00:36:24.474Z,76
2019-04-01T00:37:14.416Z,75.9
2019-04-01T00:38:04.309Z,75.9
2019-04-01T00:38:54.336Z,75.9
2019-04-01T00:39:44.944Z,75.9
2019-04-01T00:40:34.331Z,75.9
2019-04-01T00:41:24.391Z,75.9
2019-04-01T00:42:14.374Z,76
2019-04-01T00:43:06.269Z,76
2019-04-01T00:43:54.338Z,76.1
2019-04-01T00:44:45.853Z,76.1
2019-04-01T00:45:34.365Z,76.1
2019-04-01T00:46:24.391Z,76.1
2019-04-01T00:47:14.372Z,76.1
2019-04-01T00:48:04.323Z,76.1
2019-04-01T00:48:54.362Z,76.2
2019-04-01T00:49:46.736Z,76.2
2019-04-01T00:50:34.356Z,76.3
2019-04-01T00:51:24.357Z,76.3
2019-04-01T00:53:27.568Z,76.4
2019-04-01T00:54:17.583Z,76.4
2019-04-01T00:55:07.567Z,76.4
2019-04-01T00:55:57.558Z,76.4
2019-04-01T00:56:47.661Z,76.5
2019-04-01T00:57:37.619Z,76.5
2019-04-01T00:58:30.340Z,76.5
2019-04-01T00:59:17.578Z,76.5
2019-04-01T01:00:07.743Z,76.5
2019-04-01T01:00:57.645Z,76.6
2019-04-01T01:01:48.881Z,76.7
2019-04-01T01:02:37.614Z,76.6
2019-04-01T01:03:27.661Z,76.7
2019-04-01T01:04:17.593Z,76.8
2019-04-01T01:05:07.632Z,76.9
2019-04-01T01:05:57.670Z,76.8
2019-04-01T01:06:49.612Z,76.8
2019-04-01T01:07:37.569Z,76.9
2019-04-01T01:08:27.587Z,76.8
2019-04-01T01:09:17.612Z,76.8
2019-04-01T01:10:07.597Z,76.8
2019-04-01T01:10:57.623Z,76.9
2019-04-01T01:11:50.463Z,76.9
2019-04-01T01:12:37.641Z,76.9
2019-04-01T01:13:27.771Z,76.9
2019-04-01T01:14:17.583Z,76.9
2019-04-01T01:15:07.871Z,77
2019-04-01T01:15:57.843Z,77
2019-04-01T01:16:49.651Z,77
2019-04-01T01:17:37.900Z,77
2019-04-01T01:18:27.897Z,77
2019-04-01T01:19:17.882Z,77
2019-04-01T01:20:07.805Z,77.1
2019-04-01T01:20:57.890Z,77.1
2019-04-01T01:21:47.999Z,77.1
2019-04-01T01:22:37.908Z,77.2
2019-04-01T01:23:27.893Z,77.3
2019-04-01T01:24:17.869Z,77.3
2019-04-01T01:25:07.927Z,77.3
2019-04-01T01:25:57.878Z,77.3
2019-04-01T01:26:47.858Z,77.3
2019-04-01T01:27:37.858Z,77.2
2019-04-01T01:28:27.832Z,77.2
2019-04-01T01:29:17.869Z,77.2
2019-04-01T01:30:07.850Z,77.2
2019-04-01T01:30:57.867Z,77.2
2019-04-01T01:31:47.950Z,77.3
2019-04-01T01:32:37.817Z,77.3
2019-04-01T01:33:27.925Z,77.3
2019-04-01T01:34:18.099Z,77.3
2019-04-01T01:35:08.122Z,77.3
2019-04-01T01:35:58.098Z,77.3
2019-04-01T01:36:48.143Z,77.3
2019-04-01T01:37:38.128Z,77.3
2019-04-01T01:38:28.146Z,77.3
2019-04-01T01:39:18.169Z,77.3
2019-04-01T01:40:09.128Z,77.3
2019-04-01T01:40:58.949Z,77.3
2019-04-01T01:41:48.952Z,77.3
2019-04-01T01:42:38.918Z,77.3
2019-04-01T01:43:28.971Z,77.4
2019-04-01T01:44:18.922Z,77.4
2019-04-01T01:45:08.940Z,77.4
2019-04-01T01:45:59.445Z,77.4
2019-04-01T01:46:48.916Z,77.5
2019-04-01T01:47:38.873Z,77.5
2019-04-01T01:48:28.933Z,77.5
2019-04-01T01:49:18.911Z,77.5
2019-04-01T01:50:08.899Z,77.5
2019-04-01T01:50:58.918Z,77.5
2019-04-01T01:51:48.921Z,77.5
2019-04-01T01:52:38.942Z,77.5
2019-04-01T01:53:29.316Z,77.5
2019-04-01T01:54:18.910Z,77.6
2019-04-01T01:55:08.882Z,77.6
2019-04-01T01:55:59.479Z,77.6
2019-04-01T01:56:49.432Z,77.6
2019-04-01T01:57:38.911Z,77.6
2019-04-01T01:58:28.954Z,77.6
2019-04-01T01:59:18.933Z,77.6
2019-04-01T02:00:08.962Z,77.6
2019-04-01T02:00:58.905Z,77.7
2019-04-01T02:01:48.957Z,77.6
2019-04-01T02:02:38.888Z,77.4
2019-04-01T02:03:28.941Z,77.7
2019-04-01T02:04:19.048Z,77.7
2019-04-01T02:05:08.923Z,77.8
2019-04-01T02:06:00.846Z,77.8
2019-04-01T02:06:48.969Z,77.8
2019-04-01T02:07:39.007Z,77.8
2019-04-01T02:08:28.903Z,77.8
2019-04-01T02:09:18.917Z,77.9
2019-04-01T02:10:08.933Z,77.9
2019-04-01T02:10:59.307Z,77.9
2019-04-01T02:11:48.915Z,77.9
2019-04-01T02:12:38.919Z,78
2019-04-01T02:13:28.962Z,78.1
2019-04-01T02:14:18.946Z,78.1
2019-04-01T02:15:09.595Z,78.1
2019-04-01T02:16:01.970Z,78.1
2019-04-01T02:16:49.551Z,78.1
2019-04-01T02:17:39.539Z,78.2
2019-04-01T02:18:29.582Z,78.2
2019-04-01T02:19:19.531Z,78.3
2019-04-01T02:20:09.541Z,78.3
2019-04-01T02:21:01.063Z,78.3
2019-04-01T02:21:49.532Z,78.4
2019-04-01T02:22:39.552Z,78.4
2019-04-01T02:23:31.996Z,78.4
2019-04-01T02:24:20.385Z,78.4
2019-04-01T02:25:10.321Z,78.4
2019-04-01T02:26:01.746Z,78.4
2019-04-01T02:26:50.440Z,78.4
2019-04-01T02:27:40.396Z,78.4
2019-04-01T02:28:30.345Z,78.4
2019-04-01T02:29:20.425Z,78.5
2019-04-01T02:30:10.352Z,78.4
2019-04-01T02:31:01.534Z,78.4
2019-04-01T02:31:50.372Z,78.5
2019-04-01T02:32:40.315Z,78.5
2019-04-01T02:33:30.347Z,78.6
2019-04-01T02:34:20.334Z,78.6
2019-04-01T02:35:10.411Z,78.6
2019-04-01T02:36:03.536Z,78.7
2019-04-01T02:36:50.321Z,78.7
2019-04-01T02:37:40.348Z,78.7
2019-04-01T02:38:30.692Z,78.7
2019-04-01T02:39:20.318Z,78.7
2019-04-01T02:40:10.307Z,78.8
2019-04-01T02:41:00.582Z,78.8
2019-04-01T02:41:50.365Z,78.8
2019-04-01T02:42:40.441Z,78.8
2019-04-01T02:43:30.370Z,78.9
2019-04-01T02:44:20.347Z,78.8
2019-04-01T02:45:10.314Z,78.8
2019-04-01T02:46:00.510Z,78.7
2019-04-01T02:46:51.115Z,78.7
2019-04-01T02:47:41.090Z,78.7
2019-04-01T02:48:31.084Z,78.8
2019-04-01T02:49:21.074Z,78.8
2019-04-01T02:50:11.106Z,78.8
2019-04-01T02:51:01.157Z,78.9
2019-04-01T02:51:51.134Z,78.9
2019-04-01T02:52:41.114Z,78.8
2019-04-01T02:53:31.621Z,78.8
2019-04-01T02:54:21.131Z,78.8
2019-04-01T02:55:11.114Z,78.9
2019-04-01T02:56:01.184Z,78.9
2019-04-01T02:56:51.091Z,78.9
2019-04-01T02:57:41.104Z,79
2019-04-01T02:58:31.122Z,79.1
2019-04-01T02:59:21.075Z,79.1
2019-04-01T03:00:11.083Z,79.2
2019-04-01T03:01:01.060Z,79.1
2019-04-01T03:01:51.106Z,79.1
2019-04-01T03:02:41.833Z,79.2
2019-04-01T03:03:31.764Z,79.2
2019-04-01T03:04:21.126Z,79.2
2019-04-01T03:05:11.166Z,79.2
2019-04-01T03:06:01.082Z,79.2
2019-04-01T03:06:51.108Z,79.1
2019-04-01T03:07:41.139Z,79.2
2019-04-01T03:08:31.107Z,79.2
2019-04-01T03:09:21.145Z,79.2
2019-04-01T03:10:11.194Z,79.1
2019-04-01T03:11:01.087Z,79.1
2019-04-01T03:11:51.129Z,79.1
2019-04-01T03:12:41.081Z,79.1
2019-04-01T03:13:31.927Z,79.1
2019-04-01T03:14:21.060Z,79
2019-04-01T03:15:11.109Z,79
2019-04-01T03:16:01.094Z,79
2019-04-01T03:16:51.116Z,79
2019-04-01T03:17:41.104Z,78.9
2019-04-01T03:18:31.122Z,79
2019-04-01T03:19:21.242Z,79.1
2019-04-01T03:20:13.167Z,79.1
2019-04-01T03:21:01.131Z,79.1
2019-04-01T03:21:51.183Z,79.2
2019-04-01T03:22:41.101Z,79.2
2019-04-01T03:23:32.053Z,79.2
2019-04-01T03:24:21.131Z,79.2
2019-04-01T03:25:11.122Z,79.3
2019-04-01T03:26:01.108Z,79.3
2019-04-01T03:26:51.311Z,79.4
2019-04-01T03:27:41.138Z,79.4
2019-04-01T03:28:31.079Z,79.4
2019-04-01T03:29:21.127Z,79.4
2019-04-01T03:30:11.129Z,79.5
2019-04-01T03:31:01.140Z,79.5
2019-04-01T03:31:51.067Z,79.6
2019-04-01T03:32:44.876Z,79.6
2019-04-01T03:33:32.055Z,79.6
2019-04-01T03:34:21.117Z,79.6
2019-04-01T03:35:12.666Z,79.6
2019-04-01T03:36:01.117Z,79.6
2019-04-01T03:36:51.163Z,79.7
2019-04-01T03:37:41.149Z,79.7
2019-04-01T03:38:31.099Z,79.7
2019-04-01T03:39:21.188Z,79.6
2019-04-01T03:40:12.047Z,79.5
2019-04-01T03:41:01.117Z,79.6
2019-04-01T03:41:51.241Z,79.6
2019-04-01T03:42:41.123Z,79.5
2019-04-01T03:43:32.105Z,79.6
2019-04-01T03:44:21.397Z,79.6
2019-04-01T03:45:11.718Z,79.7
2019-04-01T03:46:01.386Z,79.7
2019-04-01T03:46:51.573Z,79.7
2019-04-01T03:47:41.336Z,79.7
2019-04-01T03:48:31.370Z,79.7
2019-04-01T03:49:21.365Z,79.7
2019-04-01T03:50:11.438Z,79.7
2019-04-01T03:51:01.371Z,79.8
2019-04-01T03:51:51.385Z,79.8
2019-04-01T03:52:41.377Z,79.9
2019-04-01T03:53:32.542Z,79.9
2019-04-01T03:54:21.368Z,79.9
2019-04-01T03:55:11.417Z,79.9
2019-04-01T03:56:01.376Z,79.9
2019-04-01T03:56:51.441Z,79.9
2019-04-01T03:57:41.336Z,79.9
2019-04-01T03:58:31.337Z,79.9
2019-04-01T03:59:21.403Z,79.8
2019-04-01T04:00:11.420Z,79.8
2019-04-01T04:01:01.570Z,79.8
2019-04-01T04:01:51.420Z,79.8
2019-04-01T04:02:41.407Z,79.8
2019-04-01T04:03:32.685Z,79.9
2019-04-01T04:04:21.359Z,79.8
2019-04-01T04:05:11.414Z,79.9
2019-04-01T04:06:01.353Z,79.9
2019-04-01T04:06:51.410Z,79.9
2019-04-01T04:07:41.372Z,79.9
2019-04-01T04:08:31.390Z,80.1
2019-04-01T04:09:21.386Z,80.1
2019-04-01T04:10:11.414Z,80.1
2019-04-01T04:11:01.399Z,80.1
2019-04-01T04:11:51.482Z,80.1
2019-04-01T04:12:41.388Z,80.1
2019-04-01T04:13:31.738Z,80.1
2019-04-01T04:14:21.346Z,80.2
2019-04-01T04:15:11.363Z,80.3
2019-04-01T04:16:01.392Z,80.3
2019-04-01T04:16:51.349Z,80.3
2019-04-01T04:17:41.527Z,80.3
2019-04-01T04:18:31.471Z,80.2
2019-04-01T04:30:52.214Z,80.4
2019-04-01T04:32:58.262Z,80.2
2019-04-01T04:33:48.968Z,80.2
2019-04-01T04:34:38.951Z,80.3
2019-04-01T04:36:33.657Z,80.3
2019-04-01T04:38:25.313Z,80.3
2019-04-01T04:39:14.934Z,80.3
2019-04-01T04:40:05.332Z,80.3
2019-04-01T04:41:09.423Z,80.3
2019-04-01T04:42:19.520Z,80.4
2019-04-01T04:43:09.512Z,80.4
2019-04-01T04:43:59.707Z,80.5
2019-04-01T04:44:49.772Z,80.4
2019-04-01T04:45:41.080Z,80.5
2019-04-01T04:46:31.081Z,80.4
2019-04-01T04:47:23.724Z,80.4
2019-04-01T04:48:11.050Z,80.4
2019-04-01T04:49:01.854Z,80.4
2019-04-01T04:49:52.830Z,80.4
2019-04-01T04:50:42.788Z,80.3
2019-04-01T04:51:32.702Z,80.4
2019-04-01T04:52:24.569Z,80.3
2019-04-01T04:53:12.763Z,80.3
2019-04-01T04:54:02.735Z,80.4
2019-04-01T04:54:52.704Z,80.4
2019-04-01T04:55:43.934Z,80.4
2019-04-01T04:56:34.025Z,80.5
2019-04-01T04:57:25.229Z,80.6
2019-04-01T04:58:13.881Z,80.6
2019-04-01T04:59:04.019Z,80.7
2019-04-01T04:59:53.854Z,80.7
2019-04-01T05:00:43.914Z,80.8
2019-04-01T05:01:33.904Z,80.8
2019-04-01T05:02:26.360Z,80.8
2019-04-01T05:03:13.889Z,80.8
2019-04-01T05:04:03.912Z,80.9
2019-04-01T05:04:54.019Z,80.9
2019-04-01T05:05:44.962Z,81
2019-04-01T05:06:34.917Z,80.9
2019-04-01T05:07:25.625Z,80.9
2019-04-01T05:08:14.922Z,80.9
2019-04-01T05:09:04.971Z,81
2019-04-01T05:09:54.930Z,81
2019-04-01T05:10:44.939Z,81
2019-04-01T05:11:34.977Z,81
2019-04-01T05:12:25.106Z,81
2019-04-01T05:16:54.377Z,81.1
2019-04-01T05:17:44.331Z,81.1
2019-04-01T05:18:34.289Z,81.1
2019-04-01T05:19:24.277Z,81.1
2019-04-01T05:20:16.468Z,81.1
2019-04-01T05:21:04.335Z,81
2019-04-01T05:21:54.374Z,81
2019-04-01T05:22:44.375Z,81
2019-04-01T05:23:34.422Z,81
2019-04-01T05:24:24.263Z,81
2019-04-01T05:25:14.451Z,81.1
2019-04-01T05:26:04.356Z,81.1
2019-04-01T05:26:54.378Z,81.2
2019-04-01T05:27:44.355Z,81.2
2019-04-01T05:28:34.317Z,81.2
2019-04-01T05:29:24.372Z,81.2
2019-04-01T05:30:14.473Z,81.2
2019-04-01T05:31:04.384Z,81.2
2019-04-01T05:31:54.884Z,81.3
2019-04-01T05:32:54.085Z,81.3
2019-04-01T05:33:55.053Z,81.3
2019-04-01T05:34:35.430Z,81.4
2019-04-01T05:35:25.579Z,81.4
2019-04-01T05:36:15.537Z,81.4
2019-04-01T05:37:08.528Z,81.4
2019-04-01T05:37:56.152Z,81.4
2019-04-01T05:38:46.387Z,81.4
2019-04-01T05:39:53.815Z,81.4
2019-04-01T05:40:42.271Z,81.5
2019-04-01T05:42:38.985Z,81.5
2019-04-01T05:43:29.055Z,81.5
2019-04-01T05:44:19.018Z,81.5
2019-04-01T05:45:09.024Z,81.5
2019-04-01T05:45:59.064Z,81.5
2019-04-01T05:46:49.016Z,81.5
2019-04-01T05:47:39.020Z,81.6
2019-04-01T05:48:29.178Z,81.6
2019-04-01T05:49:19.128Z,81.7
2019-04-01T05:50:08.959Z,81.7
2019-04-01T05:50:59.012Z,81.7
2019-04-01T05:51:48.977Z,81.7
2019-04-01T05:52:39.067Z,81.8
2019-04-01T05:53:29.049Z,81.9
2019-04-01T05:54:19.008Z,82
2019-04-01T05:55:09.168Z,82.1
2019-04-01T05:55:59.047Z,82.1
2019-04-01T05:56:49.044Z,82.1
2019-04-01T05:57:39.070Z,82.1
2019-04-01T05:58:29.042Z,82
2019-04-01T05:59:19.035Z,81.9
2019-04-01T06:00:09.039Z,81.8
2019-04-01T06:00:59.058Z,81.9
2019-04-01T06:01:48.989Z,81.9
2019-04-01T06:02:39.009Z,82
2019-04-01T06:03:28.992Z,82
2019-04-01T06:04:19.057Z,82
2019-04-01T06:05:09.032Z,82
2019-04-01T06:05:59.627Z,82.1
2019-04-01T06:06:49.639Z,82.2
2019-04-01T06:07:39.590Z,82.3
2019-04-01T06:08:29.625Z,82.3
2019-04-01T06:09:19.504Z,82.2
2019-04-01T06:10:09.535Z,82.2
2019-04-01T06:10:59.588Z,82.1
2019-04-01T06:11:50.116Z,82.1
2019-04-01T06:12:40.481Z,82.2
2019-04-01T06:13:30.597Z,82.1
2019-04-01T06:14:21.022Z,82.2
2019-04-01T06:15:11.916Z,82.2
2019-04-01T06:16:01.873Z,82.1
2019-04-01T06:16:51.862Z,82.1
2019-04-01T06:17:41.865Z,82.2
2019-04-01T06:18:31.891Z,82.3
2019-04-01T06:19:22.115Z,82.5
2019-04-01T06:20:12.514Z,82.6
2019-04-01T06:21:02.314Z,82.6
2019-04-01T06:21:52.375Z,82.7
2019-04-01T06:22:42.313Z,82.8
2019-04-01T06:23:33.565Z,82.9
2019-04-01T06:24:24.774Z,83.1
2019-04-01T06:25:13.792Z,83.2
2019-04-01T06:26:03.761Z,83.2
2019-04-01T06:26:53.856Z,83.3
2019-04-01T06:27:43.732Z,83.4
2019-04-01T06:28:33.781Z,83.4
2019-04-01T06:29:23.839Z,83.5
2019-04-01T06:30:13.799Z,83.6
2019-04-01T06:31:03.792Z,83.7
2019-04-01T06:31:53.906Z,83.9
2019-04-01T06:32:43.753Z,84
2019-04-01T06:33:33.885Z,84
2019-04-01T06:34:24.238Z,84.2
2019-04-01T06:35:14.941Z,84.3
2019-04-01T06:36:16.070Z,84.5
2019-04-01T06:37:06.074Z,84.5
2019-04-01T06:37:56.355Z,84.6
2019-04-01T06:38:46.340Z,84.7
2019-04-01T06:39:36.288Z,84.8
2019-04-01T06:43:21.159Z,85.3
2019-04-01T06:44:11.192Z,85.3
2019-04-01T06:45:01.278Z,85.4
2019-04-01T06:45:51.182Z,85.4
2019-04-01T06:46:41.539Z,85.5
2019-04-01T06:47:31.191Z,85.6
2019-04-01T06:48:21.199Z,85.7
2019-04-01T06:49:11.212Z,85.8
2019-04-01T06:50:01.187Z,85.9
2019-04-01T06:50:51.149Z,86
2019-04-01T06:51:41.304Z,86
2019-04-01T06:52:31.216Z,86.1
2019-04-01T06:59:56.017Z,86.7
2019-04-01T07:00:46.501Z,86.8
2019-04-01T07:01:36.469Z,86.9
2019-04-01T07:02:27.405Z,86.9
2019-04-01T07:03:18.699Z,86.9
2019-04-01T07:04:08.639Z,86.9
2019-04-01T07:04:59.479Z,87
2019-04-01T07:22:26.016Z,85.8
2019-04-01T07:23:15.887Z,85.8
2019-04-01T07:24:05.851Z,85.7
2019-04-01T07:24:55.833Z,85.6
2019-04-01T07:25:47.604Z,85.5
2019-04-01T07:26:35.884Z,85.4
2019-04-01T07:27:25.909Z,85.4
2019-04-01T07:28:15.821Z,85.3
2019-04-01T07:29:05.856Z,85.2
2019-04-01T07:29:55.857Z,85.1
2019-04-01T07:30:48.828Z,85.1
2019-04-01T07:31:35.834Z,84.8
2019-04-01T07:33:42.250Z,84.3
2019-04-01T07:34:32.278Z,84.1
2019-04-01T07:35:22.951Z,84
2019-04-01T07:36:13.626Z,83.9
2019-04-01T07:37:03.925Z,83.9
2019-04-01T07:37:53.590Z,83.8
2019-04-01T07:38:44.588Z,83.7
2019-04-01T07:39:34.434Z,83.6
2019-04-01T07:40:25.216Z,83.5
2019-04-01T07:41:16.219Z,83.4
2019-04-01T07:42:18.619Z,83.4
2019-04-01T07:43:18.467Z,83.3
2019-04-01T07:44:08.505Z,83.3
2019-04-01T07:44:58.479Z,83.2
2019-04-01T07:45:49.432Z,83.3
2019-04-01T07:46:38.467Z,83.1
2019-04-01T07:47:28.837Z,83
2019-04-01T07:51:01.118Z,82.3
2019-04-01T07:51:51.748Z,82
2019-04-01T07:52:41.125Z,81.7
2019-04-01T07:53:31.127Z,81.4
2019-04-01T07:54:21.121Z,81.2
2019-04-01T07:55:11.135Z,81
2019-04-01T07:56:02.634Z,80.9
2019-04-01T07:56:52.638Z,80.8
2019-04-01T08:03:03.288Z,79.4
2019-04-01T08:03:58.894Z,79.4
2019-04-01T08:04:48.890Z,79.4
2019-04-01T08:05:38.930Z,79.1
2019-04-01T08:06:28.948Z,79
2019-04-01T08:07:18.937Z,78.6
2019-04-01T08:08:09.034Z,77.8
2019-04-01T08:08:58.896Z,77.2
2019-04-01T08:09:49.076Z,75.4
2019-04-01T08:10:38.911Z,75
2019-04-01T08:18:18.737Z,69.5
2019-04-01T08:19:08.839Z,69.4
2019-04-01T08:22:03.430Z,66.2
2019-04-01T08:25:09.031Z,66.1
2019-04-01T08:25:59.218Z,64.3
2019-04-01T08:28:01.068Z,65
2019-04-01T08:28:49.331Z,64.2
2019-04-01T08:29:39.391Z,63.5
2019-04-01T08:31:48.102Z,61.3
2019-04-01T08:32:39.509Z,60.9
2019-04-01T08:33:30.000Z,60.7
2019-04-01T08:34:20.191Z,61
2019-04-01T08:35:10.758Z,60.3
2019-04-01T08:36:01.161Z,60.6
2019-04-01T08:36:51.581Z,59.6
2019-04-01T08:37:42.767Z,59.3
2019-04-01T08:38:33.119Z,59.8
2019-04-01T08:39:22.678Z,60.4
2019-04-01T08:40:12.854Z,60.5
2019-04-01T08:46:07.186Z,59.4
2019-04-01T08:47:00.227Z,61.5
2019-04-01T08:47:47.157Z,61
2019-04-01T08:48:37.138Z,61
2019-04-01T08:49:27.541Z,61.2
2019-04-01T08:50:17.517Z,61
2019-04-01T09:06:31.175Z,61.1
2019-04-01T09:07:18.041Z,61.1
2019-04-01T09:08:08.178Z,61
2019-04-01T09:08:57.997Z,61.5
2019-04-01T09:09:48.068Z,60.9
2019-04-01T09:10:38.597Z,60.1
2019-04-01T09:11:27.986Z,60.3
2019-04-01T09:12:18.009Z,60.3
2019-04-01T09:13:08.094Z,60.1
2019-04-01T09:13:58.115Z,60.4
2019-04-01T09:14:48.199Z,60.9
2019-04-01T09:15:38.234Z,61.4
2019-04-01T09:16:27.967Z,60.8
2019-04-01T09:17:18.025Z,61.1
2019-04-01T09:18:08.607Z,60.5
2019-04-01T09:18:58.006Z,61.3
2019-04-01T09:19:48.039Z,61.6
2019-04-01T09:20:38.021Z,61.6
2019-04-01T09:21:27.998Z,60.9
2019-04-01T09:22:18.047Z,61.1
2019-04-01T09:23:08.060Z,61.1
2019-04-01T09:23:58.051Z,61.2
2019-04-01T09:24:48.026Z,60.4
2019-04-01T09:25:38.113Z,60.5
2019-04-01T09:26:28.150Z,60.7
2019-04-01T09:27:18.064Z,59.6
2019-04-01T09:28:08.599Z,60.2
2019-04-01T09:28:58.324Z,60.6
2019-04-01T09:29:48.327Z,60.8
2019-04-01T09:30:38.315Z,60.4
2019-04-01T09:31:28.301Z,59.7
2019-04-01T09:32:18.273Z,59.9
2019-04-01T09:33:09.326Z,59.9
2019-04-01T09:33:58.298Z,60.1
2019-04-01T09:34:48.267Z,60.2
2019-04-01T09:35:40.811Z,60.6
2019-04-01T09:36:28.604Z,60.6
2019-04-01T09:37:18.596Z,60.8
2019-04-01T09:38:08.926Z,60.3
2019-04-01T09:38:58.634Z,60.3
2019-04-01T09:39:49.008Z,60.8
2019-04-01T09:40:39.137Z,60.6
2019-04-01T09:41:29.331Z,60.3
2019-04-01T09:42:27.147Z,60.1
2019-04-01T09:43:17.249Z,60.1
2019-04-01T09:44:09.095Z,60.4
2019-04-01T09:44:57.812Z,60.6
2019-04-01T09:45:48.096Z,60
2019-04-01T10:03:00.746Z,58.2
2019-04-01T10:03:57.763Z,58.5
2019-04-01T10:04:47.803Z,58.4
2019-04-01T10:05:38.078Z,57.9
2019-04-01T10:06:28.111Z,57.9
2019-04-01T10:07:18.026Z,56.5
2019-04-01T10:08:13.194Z,56.1
2019-04-01T10:09:02.887Z,56.9
2019-04-01T10:09:52.806Z,57.4
2019-04-01T10:10:42.867Z,57
2019-04-01T10:22:00.608Z,55.8
2019-04-01T10:22:50.879Z,55.7
2019-04-01T10:23:40.986Z,54.3
2019-04-01T10:24:30.979Z,54.6
2019-04-01T10:25:21.795Z,54.8
2019-04-01T10:26:12.053Z,55.1
2019-04-01T10:27:02.863Z,55.4
2019-04-01T10:27:53.190Z,55.9
2019-04-01T10:28:43.227Z,54.4
2019-04-01T10:29:33.883Z,54.2
2019-04-01T10:30:24.469Z,54.2
2019-04-01T10:31:16.705Z,53.9
2019-04-01T10:32:06.016Z,54.2
2019-04-01T10:32:57.896Z,54.6
2019-04-01T10:33:51.590Z,54.2
2019-04-01T10:34:41.751Z,54.9
2019-04-01T10:53:59.848Z,51.1
2019-04-01T10:54:50.117Z,51.8
2019-04-01T10:55:40.371Z,52.2
2019-04-01T10:56:31.293Z,52.3
2019-04-01T11:42:40.694Z,46.7
2019-04-01T11:43:29.362Z,46.1
2019-04-01T11:44:19.203Z,45.7
2019-04-01T11:45:09.166Z,46.5
2019-04-01T11:45:59.294Z,46.6
2019-04-01T11:46:49.188Z,46.5
2019-04-01T11:47:39.165Z,47.1
2019-04-01T11:48:29.460Z,46.2
2019-04-01T11:49:19.233Z,46
2019-04-01T11:50:09.146Z,45.9
2019-04-01T11:50:59.190Z,45.4
2019-04-01T11:51:49.273Z,46.1
2019-04-01T11:52:39.286Z,46.1
2019-04-01T11:53:29.220Z,46.6
2019-04-01T11:54:19.135Z,45.3
2019-04-01T11:55:09.679Z,45.4
2019-04-01T11:55:59.146Z,45.7
2019-04-01T11:56:49.166Z,45.9
2019-04-01T11:57:40.459Z,43.5
2019-04-01T11:58:30.087Z,43.5
2019-04-01T11:59:19.111Z,42.7
2019-04-01T12:00:12.366Z,42.6
2019-04-01T12:00:59.170Z,43.6
2019-04-01T12:01:49.160Z,43.6
2019-04-01T12:02:39.204Z,44.2
2019-04-01T12:03:31.355Z,44.5
2019-04-01T12:04:19.149Z,44.2
2019-04-01T12:05:09.495Z,44.5
2019-04-01T12:05:59.155Z,44
2019-04-01T12:06:49.162Z,43.6
2019-04-01T12:07:39.189Z,43.6
2019-04-01T12:08:30.619Z,44.2
2019-04-01T12:09:19.195Z,44.6
2019-04-01T12:10:09.217Z,44.6
2019-04-01T12:10:59.190Z,44.5
2019-04-01T12:11:49.190Z,43.2
2019-04-01T12:12:39.216Z,43.3
2019-04-01T12:13:29.267Z,44.2
2019-04-01T12:14:19.219Z,42.8
2019-04-01T12:15:11.886Z,43.3
2019-04-01T12:15:59.245Z,43.4
2019-04-01T12:16:49.161Z,43.2
2019-04-01T12:17:41.503Z,43.2
2019-04-01T12:18:29.254Z,43.5
2019-04-01T12:19:19.188Z,43.7
2019-04-01T12:20:59.203Z,40.8
2019-04-01T12:21:49.211Z,40.7
2019-04-01T12:22:40.538Z,40.8
2019-04-01T12:23:29.174Z,40.6
2019-04-01T12:24:19.159Z,41
2019-04-01T12:25:09.628Z,42.1
2019-04-01T12:26:13.846Z,43.1
2019-04-01T12:26:49.219Z,42.9
2019-04-01T12:27:39.167Z,42.8
2019-04-01T12:28:29.171Z,42.9
2019-04-01T12:29:19.108Z,42.5
2019-04-01T12:30:09.166Z,42.1
2019-04-01T12:30:59.162Z,42
2019-04-01T12:31:49.162Z,42.8
2019-04-01T12:32:39.239Z,42.5
2019-04-01T12:33:29.151Z,42.4
2019-04-01T12:34:19.289Z,42.4
2019-04-01T12:35:09.630Z,42.2
2019-04-01T12:35:59.134Z,41.7
2019-04-01T12:36:49.492Z,41
2019-04-01T12:37:39.222Z,42.2
2019-04-01T12:38:29.247Z,42.4
2019-04-01T12:39:19.133Z,43.1
2019-04-01T12:40:09.214Z,40.7
2019-04-01T12:40:59.186Z,40.4
2019-04-01T12:41:49.237Z,39.6
2019-04-01T12:42:39.246Z,40.1
2019-04-01T12:43:29.186Z,40.1
2019-04-01T12:44:19.236Z,40.1
2019-04-01T12:45:10.376Z,41.2
2019-04-01T12:45:59.192Z,42.3
2019-04-01T12:46:49.332Z,42.7
2019-04-01T12:47:42.838Z,43
2019-04-01T12:48:29.197Z,43.1
2019-04-01T12:49:19.200Z,42.9
2019-04-01T12:50:09.199Z,42.6
2019-04-01T12:50:59.150Z,42.3
2019-04-01T12:51:49.912Z,40.7
2019-04-01T12:52:40.083Z,39.4
2019-04-01T12:53:29.208Z,40.3
2019-04-01T12:54:19.446Z,41.1
2019-04-01T12:55:12.458Z,41
2019-04-01T13:32:02.708Z,38.7
2019-04-01T13:32:53.466Z,40.3
2019-04-01T14:09:40.212Z,38.5
2019-04-01T14:10:30.060Z,37.3
2019-04-01T14:11:20.257Z,38.5
2019-04-01T14:12:10.392Z,38.6
2019-04-01T14:13:00.655Z,38.8
2019-04-01T14:13:50.551Z,38.4
2019-04-01T14:14:40.421Z,38.5
2019-04-01T14:15:30.370Z,38.2
2019-04-01T14:16:20.405Z,38.2
2019-04-01T14:17:10.344Z,38.5
2019-04-01T14:18:00.512Z,37.9
2019-04-01T14:18:50.605Z,38.9
2019-04-01T14:19:40.391Z,36.5
2019-04-01T14:20:30.315Z,37.1
2019-04-01T14:21:20.843Z,37.2
2019-04-01T14:22:10.375Z,37.9
2019-04-01T14:23:00.494Z,38
2019-04-01T14:23:52.154Z,37.5
2019-04-01T14:24:42.569Z,36.8
2019-04-01T14:25:30.353Z,37.8
2019-04-01T14:26:20.510Z,37.7
2019-04-01T14:27:10.450Z,37.7
2019-04-01T14:28:00.574Z,37.4
2019-04-01T14:28:53.295Z,35.8
2019-04-01T14:29:40.414Z,36.3
2019-04-01T14:30:30.432Z,36.8
2019-04-01T14:44:42.165Z,38
2019-04-01T14:45:33.013Z,37.5
2019-04-01T14:46:22.893Z,37.7
2019-04-01T14:47:14.555Z,37.4
2019-04-01T14:48:03.927Z,37.3
2019-04-01T14:48:59.904Z,37.3
2019-04-01T14:49:44.927Z,36.6
2019-04-01T14:51:56.738Z,37.3
2019-04-01T14:52:45.426Z,37.7
2019-04-01T14:53:35.415Z,37.3
2019-04-01T14:54:25.534Z,37.4
2019-04-01T14:55:15.477Z,37.7
2019-04-01T14:56:05.474Z,38.1
2019-04-01T14:56:57.329Z,38.4
2019-04-01T14:57:45.417Z,38.5
2019-04-01T14:58:35.491Z,38.7
2019-04-01T14:59:25.641Z,37.7
2019-04-01T15:00:17.762Z,36.3
2019-04-01T15:01:08.112Z,36.4
2019-04-01T15:02:10.865Z,36.8
2019-04-01T15:03:34.042Z,36.1
2019-04-01T15:05:58.295Z,36.9
2019-04-01T15:06:46.777Z,36.8
2019-04-01T15:09:00.173Z,36.4
2019-04-01T15:09:53.575Z,36.9
2019-04-01T15:10:45.121Z,37
2019-04-01T15:23:01.015Z,37.4
2019-04-01T15:23:53.245Z,38.1
2019-04-01T15:24:40.877Z,38.2
2019-04-01T15:25:31.773Z,37.7
2019-04-01T15:26:20.879Z,37.7
2019-04-01T15:27:10.927Z,37.1
2019-04-01T15:28:02.436Z,37.7
2019-04-01T15:28:51.932Z,37.2
2019-04-01T15:29:41.851Z,38.6
2019-04-01T15:30:32.099Z,38.5
2019-04-01T15:31:21.894Z,37.8
2019-04-01T15:32:17.524Z,38.2
2019-04-01T15:33:10.755Z,38
2019-04-01T15:35:20.812Z,37.8
2019-04-01T15:36:10.808Z,38.3
2019-04-01T15:37:03.137Z,38.1
2019-04-01T15:37:55.981Z,37.6
2019-04-01T15:38:45.982Z,37.5
2019-04-01T15:39:40.452Z,37.7
2019-04-01T15:40:33.122Z,37.5
2019-04-01T15:41:20.286Z,36.9
2019-04-01T15:42:10.297Z,37.5
2019-04-01T15:43:36.676Z,37.3
2019-04-01T15:44:36.209Z,38
2019-04-01T15:45:26.447Z,37.6
2019-04-01T15:46:23.348Z,37.8
2019-04-01T15:47:17.171Z,37.6
2019-04-01T15:48:14.827Z,37.6
2019-04-01T15:49:11.213Z,38.2
2019-04-01T15:51:15.063Z,38.7
2019-04-01T15:52:06.097Z,37.9
2019-04-01T15:52:55.079Z,37.1
2019-04-01T15:53:45.426Z,36.8
2019-04-01T15:54:35.057Z,37.5
2019-04-01T15:55:25.078Z,38.2
2019-04-01T15:56:15.027Z,37.9
2019-04-01T15:57:06.683Z,37.4
2019-04-01T15:57:55.042Z,37.8
2019-04-01T15:58:45.125Z,38.1
2019-04-01T15:59:35.617Z,38
2019-04-01T16:00:25.318Z,37.8